9OH5 weather

Miami Valley Heliport
Troy, Ohio, United States

Public forecast

Using degrees Fahrenheit for public forecast. Weather courtesy of forecast.io.

METAR (pilot weather report)

Closest report is The Ohio State University Airport - Don Scott Field, 7.3 nm (13.6 km) ENE. Retrieved 2019/05/21 10:18 UTC (24 minutes ago):

KOSU 211018Z AUTO 05006KT 10SM BKN031 09/07 A3011 RMK AO2 T00940067

TAF (pilot weather forecast)

Closest forecast is John Glenn Columbus International Airport, 15.7 nm (29.1 km) E. Retrieved 2019/05/21 06:39 UTC (4 hours ago):

TAF KCMH 210536Z 2106/2206 02006KT P6SM FEW030 BKN250 FM211300 07008KT P6SM BKN120 FM212300 08009KT P6SM SCT100